Magnolia Square, Florida
Current Conditions -  °F | °C
As of 8:53 AM on Wednesday 22 Oct 2014 (Local Time) from KMCO Reporting Station
Few Clouds Few Clouds  
Wind Chill: 71°   Ceiling: Unl
Heat Index: 71°   Visibility: 10mi
Dew Point: 66°   Wind: 9mph
Humidity: 84%   Direction: 360°N
Pressure: 29.99"   Gusts: NA
Location:  28.2734°N, 81.1262°W
Report Text: KMCO 221253Z 36008KT 10SM R35L/5500VP6000FT FEW300 22/19 A2999 RMK AO2 SLP153 T02170189
Loading
Personal Weather Stations






























Interactive Weather Map
Tropical Storm Tracking
New forecast layout! Learn more

10-Day Weather Forecast

Advertisements
Track Severe Weather on mobile